Time,TemperatureF,DewpointF,PressureIn,WindDirection,WindDirectionDegrees,WindSpeedMPH,WindSpeedGustMPH,Humidity,HourlyPrecipIn,Conditions,Clouds,dailyrainin,SoftwareType,DateUTC
2013-01-12 00:22:00,38.0,38.0,-100.00,NW,318,3.0,-999.0,100,0.02,,,-99.99,,2013-01-12 05:22:00,
2013-01-12 00:32:00,38.0,38.0,-100.00,NW,318,3.0,-999.0,100,0.02,,,-99.99,,2013-01-12 05:32:00,
2013-01-12 00:42:00,38.0,38.0,-100.00,NW,318,3.0,-999.0,100,0.02,,,-99.99,,2013-01-12 05:42:00,
2013-01-12 01:22:00,38.0,38.0,-100.00,NW,304,2.0,-999.0,100,0.01,,,-99.99,,2013-01-12 06:22:00,
2013-01-12 01:33:00,38.0,38.0,-100.00,NW,304,2.0,-999.0,100,0.01,,,-99.99,,2013-01-12 06:33:00,
2013-01-12 01:43:00,38.0,38.0,-100.00,NW,304,2.0,-999.0,100,0.01,,,-99.99,,2013-01-12 06:43:00,
2013-01-12 02:22:00,38.0,38.0,-100.00,NW,323,2.0,-999.0,100,0.00,,,-99.99,,2013-01-12 07:22:00,
2013-01-12 02:32:00,38.0,38.0,-100.00,NW,323,2.0,-999.0,100,0.00,,,-99.99,,2013-01-12 07:32:00,
2013-01-12 02:42:00,38.0,38.0,-100.00,NW,323,2.0,-999.0,100,0.00,,,-99.99,,2013-01-12 07:42:00,
2013-01-12 03:22:00,39.0,39.0,-100.00,WNW,295,2.0,-999.0,100,0.00,,,-99.99,,2013-01-12 08:22:00,
2013-01-12 03:32:00,39.0,39.0,-100.00,WNW,295,2.0,-999.0,100,0.00,,,-99.99,,2013-01-12 08:32:00,
2013-01-12 03:42:00,39.0,39.0,-100.00,WNW,295,2.0,-999.0,100,0.00,,,-99.99,,2013-01-12 08:42:00,
2013-01-12 04:22:00,39.0,39.0,-100.00,WNW,283,2.0,-999.0,100,0.00,,,-99.99,,2013-01-12 09:22:00,
2013-01-12 04:32:00,39.0,39.0,-100.00,WNW,283,2.0,-999.0,100,0.00,,,-99.99,,2013-01-12 09:32:00,
2013-01-12 04:42:00,39.0,39.0,-100.00,WNW,283,2.0,-999.0,100,0.00,,,-99.99,,2013-01-12 09:42:00,
2013-01-12 05:22:00,39.0,39.0,-100.00,North,-999,0.0,-999.0,100,0.00,,,-99.99,,2013-01-12 10:22:00,
2013-01-12 05:32:00,39.0,39.0,-100.00,North,-999,0.0,-999.0,100,0.00,,,-99.99,,2013-01-12 10:32:00,
2013-01-12 05:43:00,39.0,39.0,-100.00,North,-999,0.0,-999.0,100,0.00,,,-99.99,,2013-01-12 10:43:00,
2013-01-12 06:12:00,36.0,36.0,-100.00,ENE,68,0.0,-999.0,100,0.00,,,-99.99,,2013-01-12 11:12:00,
2013-01-12 06:22:00,36.0,36.0,-100.00,ENE,68,0.0,-999.0,100,0.00,,,-99.99,,2013-01-12 11:22:00,
2013-01-12 06:33:00,36.0,36.0,-100.00,ENE,68,0.0,-999.0,100,0.00,,,-99.99,,2013-01-12 11:33:00,
2013-01-12 06:42:00,36.0,36.0,-100.00,ENE,68,0.0,-999.0,100,0.00,,,-99.99,,2013-01-12 11:42:00,
2013-01-12 07:22:00,36.0,36.0,-100.00,SE,145,0.0,-999.0,100,0.01,,,-99.99,,2013-01-12 12:22:00,
2013-01-12 07:33:00,36.0,36.0,-100.00,SE,145,0.0,-999.0,100,0.01,,,-99.99,,2013-01-12 12:33:00,
2013-01-12 07:43:00,36.0,36.0,-100.00,SE,145,0.0,-999.0,100,0.01,,,-99.99,,2013-01-12 12:43:00,
2013-01-12 08:23:00,35.0,35.0,-100.00,NNE,12,0.0,-999.0,100,0.00,,,-99.99,,2013-01-12 13:23:00,
2013-01-12 08:33:00,35.0,35.0,-100.00,NNE,12,0.0,-999.0,100,0.00,,,-99.99,,2013-01-12 13:33:00,
2013-01-12 08:43:00,35.0,35.0,-100.00,NNE,12,0.0,-999.0,100,0.00,,,-99.99,,2013-01-12 13:43:00,
2013-01-12 09:22:00,36.0,36.0,-100.00,East,85,1.0,-999.0,100,0.00,,,-99.99,,2013-01-12 14:22:00,
2013-01-12 09:33:00,36.0,36.0,-100.00,East,85,1.0,-999.0,100,0.00,,,-99.99,,2013-01-12 14:33:00,
2013-01-12 09:43:00,36.0,36.0,-100.00,East,85,1.0,-999.0,100,0.00,,,-99.99,,2013-01-12 14:43:00,
2013-01-12 10:23:00,36.0,36.0,-100.00,ENE,72,1.0,-999.0,100,0.00,,,-99.99,,2013-01-12 15:23:00,
2013-01-12 10:33:00,36.0,36.0,-100.00,ENE,72,1.0,-999.0,100,0.00,,,-99.99,,2013-01-12 15:33:00,
2013-01-12 10:43:00,36.0,36.0,-100.00,ENE,72,1.0,-999.0,100,0.00,,,-99.99,,2013-01-12 15:43:00,
2013-01-12 11:23:00,37.0,37.0,-100.00,ENE,69,0.0,-999.0,100,0.00,,,-99.99,,2013-01-12 16:23:00,
2013-01-12 11:33:00,37.0,37.0,-100.00,ENE,69,0.0,-999.0,100,0.00,,,-99.99,,2013-01-12 16:33:00,
2013-01-12 11:43:00,37.0,37.0,-100.00,ENE,69,0.0,-999.0,100,0.00,,,-99.99,,2013-01-12 16:43:00,
2013-01-12 12:23:00,40.0,40.0,-100.00,East,84,1.0,-999.0,100,0.00,,,-99.99,,2013-01-12 17:23:00,
2013-01-12 12:33:00,40.0,40.0,-100.00,East,84,1.0,-999.0,100,0.00,,,-99.99,,2013-01-12 17:33:00,
2013-01-12 12:43:00,40.0,40.0,-100.00,East,84,1.0,-999.0,100,0.00,,,-99.99,,2013-01-12 17:43:00,
2013-01-12 13:23:00,40.0,40.0,-100.00,East,101,2.0,-999.0,100,0.00,,,-99.99,,2013-01-12 18:23:00,
2013-01-12 13:33:00,40.0,40.0,-100.00,East,101,2.0,-999.0,100,0.00,,,-99.99,,2013-01-12 18:33:00,
2013-01-12 13:43:00,40.0,40.0,-100.00,East,101,2.0,-999.0,100,0.00,,,-99.99,,2013-01-12 18:43:00,
2013-01-12 14:23:00,39.0,39.0,-100.00,ENE,78,1.0,-999.0,100,0.00,,,-99.99,,2013-01-12 19:23:00,
2013-01-12 14:33:00,39.0,39.0,-100.00,ENE,78,1.0,-999.0,100,0.00,,,-99.99,,2013-01-12 19:33:00,
2013-01-12 14:43:00,39.0,39.0,-100.00,ENE,78,1.0,-999.0,100,0.00,,,-99.99,,2013-01-12 19:43:00,
2013-01-12 15:22:00,40.0,40.0,-100.00,South,174,0.0,-999.0,100,0.00,,,-99.99,,2013-01-12 20:22:00,
2013-01-12 15:33:00,40.0,40.0,-100.00,South,174,0.0,-999.0,100,0.00,,,-99.99,,2013-01-12 20:33:00,
2013-01-12 15:43:00,40.0,40.0,-100.00,South,174,0.0,-999.0,100,0.00,,,-99.99,,2013-01-12 20:43:00,
2013-01-12 16:22:00,40.0,40.0,-100.00,East,84,1.0,-999.0,100,0.00,,,-99.99,,2013-01-12 21:22:00,
2013-01-12 16:33:00,40.0,40.0,-100.00,East,84,1.0,-999.0,100,0.00,,,-99.99,,2013-01-12 21:33:00,
2013-01-12 16:43:00,40.0,40.0,-100.00,East,84,1.0,-999.0,100,0.00,,,-99.99,,2013-01-12 21:43:00,
2013-01-12 17:23:00,38.0,38.0,-100.00,WSW,237,1.0,-999.0,100,0.00,,,-99.99,,2013-01-12 22:23:00,
2013-01-12 17:33:00,38.0,38.0,-100.00,WSW,237,1.0,-999.0,100,0.00,,,-99.99,,2013-01-12 22:33:00,
2013-01-12 17:43:00,38.0,38.0,-100.00,WSW,237,1.0,-999.0,100,0.00,,,-99.99,,2013-01-12 22:43:00,
2013-01-12 18:23:00,36.0,36.0,-100.00,SE,124,0.0,-999.0,100,0.00,,,-99.99,,2013-01-12 23:23:00,
2013-01-12 18:33:00,36.0,36.0,-100.00,SE,124,0.0,-999.0,100,0.00,,,-99.99,,2013-01-12 23:33:00,
2013-01-12 18:43:00,36.0,36.0,-100.00,SE,124,0.0,-999.0,100,0.00,,,-99.99,,2013-01-12 23:43:00,
2013-01-12 19:23:00,38.0,38.0,-100.00,NW,312,0.0,-999.0,100,0.00,,,-99.99,,2013-01-13 00:23:00,
2013-01-12 19:33:00,38.0,38.0,-100.00,NW,312,0.0,-999.0,100,0.00,,,-99.99,,2013-01-13 00:33:00,
2013-01-12 19:43:00,38.0,38.0,-100.00,NW,312,0.0,-999.0,100,0.00,,,-99.99,,2013-01-13 00:43:00,
2013-01-12 20:23:00,37.0,37.0,-100.00,North,-999,0.0,-999.0,100,0.00,,,-99.99,,2013-01-13 01:23:00,
2013-01-12 20:33:00,37.0,37.0,-100.00,North,-999,0.0,-999.0,100,0.00,,,-99.99,,2013-01-13 01:33:00,
2013-01-12 20:43:00,37.0,37.0,-100.00,North,-999,0.0,-999.0,100,0.00,,,-99.99,,2013-01-13 01:43:00,
2013-01-12 21:23:00,37.0,37.0,-100.00,North,-999,0.0,-999.0,100,0.01,,,-99.99,,2013-01-13 02:23:00,
2013-01-12 21:33:00,37.0,37.0,-100.00,North,-999,0.0,-999.0,100,0.01,,,-99.99,,2013-01-13 02:33:00,
2013-01-12 21:43:00,37.0,37.0,-100.00,North,-999,0.0,-999.0,100,0.01,,,-99.99,,2013-01-13 02:43:00,
2013-01-12 22:22:00,38.0,38.0,-100.00,NNE,14,1.0,-999.0,100,0.00,,,-99.99,,2013-01-13 03:22:00,
2013-01-12 22:33:00,38.0,38.0,-100.00,NNE,14,1.0,-999.0,100,0.00,,,-99.99,,2013-01-13 03:33:00,
2013-01-12 22:43:00,38.0,38.0,-100.00,NNE,14,1.0,-999.0,100,0.00,,,-99.99,,2013-01-13 03:43:00,
2013-01-12 23:22:00,39.0,39.0,-100.00,NNE,23,1.0,-999.0,100,0.00,,,-99.99,,2013-01-13 04:22:00,
2013-01-12 23:33:00,39.0,39.0,-100.00,NNE,23,1.0,-999.0,100,0.00,,,-99.99,,2013-01-13 04:33:00,
2013-01-12 23:43:00,39.0,39.0,-100.00,NNE,23,1.0,-999.0,100,0.00,,,-99.99,,2013-01-13 04:43:00,